createdAt,value
2018-12-27T03:00:22.003Z,78.20
2018-12-27T03:02:51.613Z,77.70
2018-12-27T03:05:21.244Z,77.90
2018-12-27T03:07:50.885Z,77.70
2018-12-27T03:10:20.506Z,77.70
2018-12-27T03:12:50.113Z,77.90
2018-12-27T03:15:19.754Z,77.80
2018-12-27T03:17:50.938Z,78.70
2018-12-27T03:20:20.558Z,78.50
2018-12-27T03:22:50.168Z,77.90
2018-12-27T03:25:19.808Z,77.70
2018-12-27T03:27:49.429Z,77.70
2018-12-27T03:30:19.032Z,77.90
2018-12-27T03:32:48.680Z,77.60
2018-12-27T03:35:18.316Z,77.60
2018-12-27T03:37:47.962Z,77.70
2018-12-27T03:40:17.914Z,77.80
2018-12-27T03:42:47.523Z,76.60
2018-12-27T03:45:17.183Z,76.50
2018-12-27T03:47:46.834Z,76.70
2018-12-27T03:50:16.463Z,76.80
2018-12-27T03:52:46.757Z,76.80
2018-12-27T03:55:16.371Z,77.20
2018-12-27T03:57:46.001Z,76.90
2018-12-27T04:00:15.642Z,77.20
2018-12-27T04:02:46.210Z,78.80
2018-12-27T04:05:15.851Z,81.00
2018-12-27T04:07:45.479Z,80.90
2018-12-27T04:10:15.646Z,80.20
2018-12-27T04:12:45.356Z,80.10
2018-12-27T04:15:14.654Z,79.50
2018-12-27T04:17:43.934Z,79.60
2018-12-27T04:20:13.311Z,79.10
2018-12-27T04:22:42.638Z,79.80
2018-12-27T04:25:12.882Z,80.20
2018-12-27T04:27:42.197Z,79.40
2018-12-27T04:30:11.527Z,78.60
2018-12-27T04:32:40.830Z,78.20
2018-12-27T04:35:10.147Z,79.00
2018-12-27T04:37:39.441Z,80.70
2018-12-27T04:40:08.743Z,81.10
2018-12-27T04:42:38.058Z,80.20
2018-12-27T04:45:07.349Z,79.90
2018-12-27T04:47:36.660Z,79.20
2018-12-27T04:50:05.943Z,79.00
2018-12-27T04:52:36.346Z,78.70
2018-12-27T04:55:05.613Z,78.60
2018-12-27T04:57:36.923Z,78.30
2018-12-27T05:00:09.327Z,78.90
2018-12-27T05:02:38.625Z,79.20
2018-12-27T05:05:08.415Z,78.60
2018-12-27T05:07:37.674Z,78.40
2018-12-27T05:10:06.979Z,78.20
2018-12-27T05:12:36.291Z,78.10
2018-12-27T05:15:05.647Z,77.90
2018-12-27T05:17:36.701Z,77.90
2018-12-27T05:20:05.981Z,78.40
2018-12-27T05:22:35.314Z,78.60
2018-12-27T05:25:04.562Z,78.60
2018-12-27T05:27:35.190Z,78.50
2018-12-27T05:30:05.036Z,78.50
2018-12-27T05:32:34.293Z,78.10
2018-12-27T05:35:04.706Z,78.10
2018-12-27T05:37:33.967Z,78.20
2018-12-27T05:40:06.616Z,78.40
2018-12-27T05:42:35.878Z,78.90
2018-12-27T05:45:05.750Z,78.80
2018-12-27T05:47:35.052Z,78.50
2018-12-27T05:50:04.911Z,78.20
2018-12-27T05:52:34.197Z,78.70
2018-12-27T05:55:03.470Z,79.40
2018-12-27T05:57:32.721Z,79.80
2018-12-27T06:00:03.235Z,80.60
2018-12-27T06:02:32.553Z,79.40
2018-12-27T06:05:01.822Z,80.10
2018-12-27T06:07:31.422Z,81.00
2018-12-27T06:10:00.709Z,81.10
2018-12-27T06:12:31.351Z,80.90
2018-12-27T06:15:00.630Z,81.80
2018-12-27T06:17:29.906Z,82.40
2018-12-27T06:19:59.210Z,81.40
2018-12-27T06:22:28.511Z,81.20
2018-12-27T06:24:57.782Z,81.60
2018-12-27T06:27:27.054Z,82.70
2018-12-27T06:29:57.569Z,82.20
2018-12-27T06:32:26.803Z,81.80
2018-12-27T06:34:56.258Z,80.70
2018-12-27T06:37:28.338Z,79.80
2018-12-27T06:39:57.628Z,79.70
2018-12-27T06:42:28.530Z,80.30
2018-12-27T06:44:57.830Z,80.10
2018-12-27T06:47:29.809Z,80.20
2018-12-27T06:49:59.093Z,80.40
2018-12-27T06:52:28.441Z,81.10
2018-12-27T06:54:57.734Z,81.10
2018-12-27T06:57:27.005Z,81.00
2018-12-27T06:59:56.314Z,81.20
2018-12-27T07:02:25.578Z,81.30
2018-12-27T07:04:54.850Z,81.10
2018-12-27T07:07:25.146Z,80.50
2018-12-27T07:09:54.427Z,80.50
2018-12-27T07:12:26.718Z,81.40
2018-12-27T07:14:56.033Z,82.20
2018-12-27T07:17:25.370Z,82.50
2018-12-27T07:19:54.651Z,82.70
2018-12-27T07:22:23.983Z,83.70
2018-12-27T07:24:53.378Z,84.30
2018-12-27T07:27:22.581Z,84.70
2018-12-27T07:29:51.906Z,84.30
2018-12-27T07:32:21.234Z,84.00
2018-12-27T07:34:56.489Z,82.70
2018-12-27T07:37:21.443Z,81.80
2018-12-27T07:39:50.742Z,81.40
2018-12-27T07:42:20.016Z,81.50
2018-12-27T07:44:49.332Z,80.90
2018-12-27T07:47:18.597Z,80.70
2018-12-27T07:49:47.910Z,80.80
2018-12-27T07:52:17.221Z,81.00
2018-12-27T07:54:47.064Z,80.90
2018-12-27T07:57:16.393Z,82.20
2018-12-27T07:59:45.694Z,82.00
2018-12-27T08:02:14.961Z,81.30
2018-12-27T08:04:44.294Z,80.30
2018-12-27T08:07:13.560Z,81.10
2018-12-27T08:09:42.862Z,79.70
2018-12-27T08:12:12.381Z,80.30
2018-12-27T08:14:41.713Z,80.80
2018-12-27T08:17:10.998Z,81.60
2018-12-27T08:19:40.281Z,81.00
2018-12-27T08:22:09.567Z,80.20
2018-12-27T08:24:38.886Z,79.60
2018-12-27T08:27:08.154Z,79.60
2018-12-27T08:29:37.429Z,79.00
2018-12-27T08:32:06.713Z,77.30
2018-12-27T08:34:37.170Z,77.50
2018-12-27T08:37:06.572Z,76.00
2018-12-27T08:39:36.166Z,76.10
2018-12-27T08:42:05.441Z,76.20
2018-12-27T08:44:35.166Z,76.60
2018-12-27T08:47:04.482Z,76.10
2018-12-27T08:49:33.765Z,75.10
2018-12-27T08:52:04.719Z,75.30
2018-12-27T08:54:34.025Z,73.50
2018-12-27T08:57:04.560Z,72.90
2018-12-27T08:59:33.894Z,72.90
2018-12-27T09:02:05.165Z,73.50
2018-12-27T09:04:34.465Z,71.80
2018-12-27T09:07:04.637Z,70.20
2018-12-27T09:09:33.950Z,70.70
2018-12-27T09:12:03.315Z,70.10
2018-12-27T09:14:32.656Z,70.00
2018-12-27T09:17:02.621Z,69.00
2018-12-27T09:19:31.926Z,67.70
2018-12-27T09:22:02.806Z,67.10
2018-12-27T09:24:32.091Z,66.10
2018-12-27T09:27:02.370Z,65.70
2018-12-27T09:29:31.661Z,65.10
2018-12-27T09:32:02.642Z,65.60
2018-12-27T09:34:32.934Z,64.80
2018-12-27T09:37:03.014Z,65.00
2018-12-27T09:39:32.306Z,65.10
2018-12-27T09:42:02.744Z,65.90
2018-12-27T09:44:32.017Z,68.00
2018-12-27T09:47:01.818Z,67.90
2018-12-27T09:49:31.130Z,66.60
2018-12-27T09:52:02.214Z,66.60
2018-12-27T09:54:31.691Z,65.40
2018-12-27T09:57:01.418Z,65.00
2018-12-27T09:59:31.668Z,65.50
2018-12-27T10:02:02.889Z,65.50
2018-12-27T10:04:32.162Z,63.80
2018-12-27T10:07:02.830Z,62.10
2018-12-27T10:09:32.109Z,62.50
2018-12-27T10:12:01.807Z,62.20
2018-12-27T10:14:31.089Z,63.60
2018-12-27T10:17:00.375Z,64.80
2018-12-27T10:19:30.627Z,65.20
2018-12-27T10:21:59.905Z,64.50
2018-12-27T10:24:30.895Z,60.70
2018-12-27T10:27:00.176Z,61.00
2018-12-27T10:29:30.792Z,62.00
2018-12-27T10:32:00.161Z,63.30
2018-12-27T10:34:30.875Z,60.40
2018-12-27T10:37:00.199Z,61.40
2018-12-27T10:39:30.891Z,61.00
2018-12-27T10:42:00.201Z,61.90
2018-12-27T10:44:31.834Z,60.70
2018-12-27T10:47:03.734Z,61.90
2018-12-27T10:49:33.033Z,64.20
2018-12-27T10:52:03.157Z,64.10
2018-12-27T10:54:32.418Z,61.40
2018-12-27T10:57:03.531Z,63.60
2018-12-27T10:59:32.869Z,64.30
2018-12-27T11:02:03.444Z,63.70
2018-12-27T11:04:32.715Z,63.40
2018-12-27T11:07:03.049Z,64.10
2018-12-27T11:09:33.885Z,63.80
2018-12-27T11:12:03.809Z,63.00
2018-12-27T11:14:33.094Z,65.10
2018-12-27T11:17:02.393Z,63.70
2018-12-27T11:19:31.652Z,64.60
2018-12-27T11:22:02.761Z,64.60
2018-12-27T11:24:32.082Z,65.60
2018-12-27T11:27:02.324Z,65.70
2018-12-27T11:29:31.645Z,64.40
2018-12-27T11:32:03.424Z,65.20
2018-12-27T11:34:32.725Z,66.50
2018-12-27T11:37:03.389Z,63.30
2018-12-27T11:39:32.666Z,62.20
2018-12-27T11:42:02.846Z,63.60
2018-12-27T11:44:32.119Z,61.40
2018-12-27T11:47:02.817Z,63.80
2018-12-27T11:49:32.111Z,63.80
2018-12-27T11:52:02.764Z,63.20
2018-12-27T11:54:32.072Z,61.40
2018-12-27T11:57:01.896Z,63.00
2018-12-27T11:59:31.163Z,61.20
2018-12-27T12:02:00.482Z,61.80
2018-12-27T12:04:29.770Z,60.90
2018-12-27T12:06:59.051Z,60.50
2018-12-27T12:09:28.314Z,60.90
2018-12-27T12:11:57.623Z,61.00
2018-12-27T12:14:28.406Z,59.40
2018-12-27T12:16:57.689Z,61.50
2018-12-27T12:19:27.000Z,60.30
2018-12-27T12:21:56.924Z,61.30
2018-12-27T12:24:26.207Z,59.60
2018-12-27T12:26:55.463Z,57.50
2018-12-27T12:29:24.725Z,59.00
2018-12-27T12:31:54.008Z,59.30
2018-12-27T12:34:23.270Z,61.10
2018-12-27T12:36:52.582Z,60.60
2018-12-27T12:39:21.846Z,58.20
2018-12-27T12:41:51.097Z,59.90
2018-12-27T12:44:20.506Z,57.90
2018-12-27T12:46:50.742Z,60.30
2018-12-27T12:49:20.063Z,61.50
2018-12-27T12:51:49.395Z,61.30
2018-12-27T12:54:18.649Z,61.20
2018-12-27T12:56:47.968Z,60.10
2018-12-27T12:59:17.234Z,59.00
2018-12-27T13:01:46.490Z,59.30
2018-12-27T13:04:16.222Z,60.10
2018-12-27T13:06:45.523Z,59.40
2018-12-27T13:09:15.868Z,60.50
2018-12-27T13:11:45.167Z,59.30
2018-12-27T13:14:14.484Z,59.40
2018-12-27T13:16:43.794Z,59.60
2018-12-27T13:19:13.052Z,58.40
2018-12-27T13:21:42.937Z,58.70
2018-12-27T13:24:12.193Z,60.00
2018-12-27T13:26:41.691Z,60.90
2018-12-27T13:29:11.006Z,59.60
2018-12-27T13:31:40.286Z,59.60
2018-12-27T13:34:09.566Z,60.20
2018-12-27T13:36:38.864Z,61.20
2018-12-27T13:39:08.141Z,61.00
2018-12-27T13:41:37.401Z,60.90
2018-12-27T13:44:06.722Z,60.20
2018-12-27T13:46:36.051Z,59.30
2018-12-27T13:49:05.321Z,60.20
2018-12-27T13:51:34.590Z,59.00
2018-12-27T13:54:03.902Z,58.50
2018-12-27T13:56:33.186Z,58.20
2018-12-27T13:59:02.470Z,59.30
2018-12-27T14:01:31.821Z,59.30
2018-12-27T14:04:03.493Z,59.60
2018-12-27T14:06:33.007Z,58.90
2018-12-27T14:09:02.650Z,58.80
2018-12-27T14:11:31.969Z,59.60
2018-12-27T14:14:02.911Z,60.20
2018-12-27T14:16:32.166Z,61.10
2018-12-27T14:19:01.478Z,61.20
2018-12-27T14:21:30.749Z,60.80
2018-12-27T14:24:00.034Z,61.70
2018-12-27T14:26:29.769Z,61.60
2018-12-27T14:28:59.042Z,59.90
2018-12-27T14:31:28.366Z,61.80
2018-12-27T14:33:57.636Z,61.20
2018-12-27T14:36:26.982Z,60.70
2018-12-27T14:38:56.325Z,60.30
2018-12-27T14:41:25.611Z,60.30
2018-12-27T14:43:55.545Z,60.70
2018-12-27T14:46:24.887Z,61.50
2018-12-27T14:48:54.144Z,60.50
2018-12-27T14:51:23.466Z,59.60
2018-12-27T14:53:52.729Z,60.90
2018-12-27T14:56:21.991Z,61.00
2018-12-27T14:58:51.317Z,61.50
2018-12-27T15:01:20.569Z,61.90
2018-12-27T15:03:49.902Z,61.40
2018-12-27T15:06:19.163Z,62.00
2018-12-27T15:08:49.234Z,61.90
2018-12-27T15:11:18.551Z,61.80
2018-12-27T15:13:47.866Z,62.00
2018-12-27T15:16:17.182Z,62.30
2018-12-27T15:18:46.502Z,63.10
2018-12-27T15:21:15.783Z,63.10
2018-12-27T15:23:45.050Z,63.70
2018-12-27T15:26:14.378Z,64.20
2018-12-27T15:28:43.650Z,64.80
2018-12-27T15:31:12.927Z,66.00
2018-12-27T15:33:42.263Z,67.20
2018-12-27T15:36:11.527Z,67.10
2018-12-27T15:38:40.857Z,66.80
2018-12-27T15:41:10.138Z,66.80
2018-12-27T15:43:39.466Z,66.70
2018-12-27T15:46:08.741Z,67.50
2018-12-27T15:48:38.007Z,67.50
2018-12-27T15:51:07.342Z,67.40
2018-12-27T15:53:36.614Z,67.30
2018-12-27T15:56:05.894Z,67.10
2018-12-27T15:58:35.244Z,67.00
2018-12-27T16:01:04.508Z,67.20
2018-12-27T16:03:33.786Z,68.50
2018-12-27T16:06:03.845Z,69.70
2018-12-27T16:08:33.089Z,69.90
2018-12-27T16:11:03.034Z,70.00
2018-12-27T16:13:32.349Z,70.00
2018-12-27T16:16:02.906Z,69.40
2018-12-27T16:18:32.165Z,69.10
2018-12-27T16:21:02.663Z,70.30
2018-12-27T16:23:32.557Z,71.40
2018-12-27T16:26:04.349Z,72.00
2018-12-27T16:28:33.678Z,72.00
2018-12-27T16:31:05.262Z,71.50
2018-12-27T16:33:34.598Z,70.80
2018-12-27T16:36:03.923Z,70.50
2018-12-27T16:38:33.190Z,70.00
2018-12-27T16:41:02.472Z,70.00
2018-12-27T16:43:31.776Z,69.70
2018-12-27T16:46:03.701Z,72.90
2018-12-27T16:48:33.050Z,73.80
2018-12-27T16:51:02.602Z,73.80
2018-12-27T16:53:32.142Z,73.00
2018-12-27T16:56:02.865Z,73.30
2018-12-27T16:58:32.103Z,71.70
2018-12-27T17:01:02.821Z,72.00
2018-12-27T17:03:32.350Z,71.90
2018-12-27T17:06:01.916Z,71.70
2018-12-27T17:08:31.181Z,71.40
2018-12-27T17:11:00.438Z,70.70
2018-12-27T17:13:32.521Z,70.60
2018-12-27T17:16:03.912Z,70.90
2018-12-27T17:18:33.187Z,71.30
2018-12-27T17:21:03.630Z,71.40
2018-12-27T17:23:32.870Z,71.40
2018-12-27T17:26:03.295Z,71.70
2018-12-27T17:28:32.549Z,72.50
2018-12-27T17:31:01.893Z,72.20
2018-12-27T17:33:31.231Z,72.50
2018-12-27T17:36:00.562Z,72.30
2018-12-27T17:41:07.066Z,72.00
2018-12-27T17:43:36.673Z,71.60
2018-12-27T17:46:05.999Z,71.50
2018-12-27T17:48:35.318Z,71.50
2018-12-27T17:51:04.652Z,72.20
2018-12-27T17:53:33.938Z,72.50
2018-12-27T17:56:03.266Z,72.30
2018-12-27T17:58:32.514Z,72.40
2018-12-27T18:01:02.817Z,72.50
2018-12-27T18:06:08.897Z,72.40
2018-12-27T18:08:38.249Z,72.20
2018-12-27T18:11:07.497Z,71.70
2018-12-27T18:13:36.900Z,71.40
2018-12-27T18:16:06.214Z,71.70
2018-12-27T18:18:35.541Z,71.60
2018-12-27T18:21:09.472Z,71.40
2018-12-27T18:23:38.821Z,73.00
2018-12-27T18:26:08.130Z,73.80
2018-12-27T18:28:37.380Z,74.80
2018-12-27T18:31:07.712Z,75.70
2018-12-27T18:33:38.047Z,76.20
2018-12-27T18:36:07.389Z,76.50
2018-12-27T18:38:36.633Z,75.80
2018-12-27T18:41:05.903Z,75.60
2018-12-27T18:43:35.231Z,74.80
2018-12-27T18:46:04.497Z,77.10
2018-12-27T18:48:33.812Z,76.30
2018-12-27T18:51:03.827Z,75.80
2018-12-27T18:53:33.397Z,75.70
2018-12-27T18:56:02.790Z,75.40
2018-12-27T18:58:33.199Z,75.10
2018-12-27T19:01:03.403Z,74.40
2018-12-27T19:03:32.730Z,73.80
2018-12-27T19:06:03.983Z,73.70
2018-12-27T19:08:33.246Z,73.60
2018-12-27T19:11:40.905Z,73.50
2018-12-27T19:14:10.178Z,73.50
2018-12-27T19:16:39.506Z,73.90
2018-12-27T19:19:08.840Z,73.90
2018-12-27T19:21:41.348Z,74.00
2018-12-27T19:24:10.678Z,75.70
2018-12-27T19:26:39.957Z,76.50
2018-12-27T19:29:09.237Z,76.70
2018-12-27T19:31:38.582Z,75.90
2018-12-27T19:34:07.853Z,75.50
2018-12-27T19:36:37.176Z,75.30
2018-12-27T19:39:06.440Z,75.10
2018-12-27T19:41:35.775Z,74.60
2018-12-27T19:44:05.113Z,74.20
2018-12-27T19:46:34.383Z,75.00
2018-12-27T19:49:03.665Z,75.30
2018-12-27T19:51:32.981Z,74.80
2018-12-27T19:54:04.950Z,74.50
2018-12-27T19:56:34.277Z,74.00
2018-12-27T19:59:04.705Z,74.00
2018-12-27T20:01:34.042Z,73.80
2018-12-27T20:04:03.322Z,74.60
2018-12-27T20:06:32.585Z,74.50
2018-12-27T20:09:03.246Z,74.20
2018-12-27T20:11:32.946Z,74.30
2018-12-27T20:14:03.505Z,74.20
2018-12-27T20:16:32.782Z,74.00
2018-12-27T20:19:03.174Z,73.60
2018-12-27T20:21:33.714Z,73.30
2018-12-27T20:24:03.054Z,73.10
2018-12-27T20:26:32.646Z,73.00
2018-12-27T20:29:03.880Z,73.00
2018-12-27T20:31:33.140Z,73.00
2018-12-27T20:34:02.486Z,73.50
2018-12-27T20:36:31.751Z,73.40
2018-12-27T20:39:02.857Z,74.40
2018-12-27T20:41:33.094Z,75.50
2018-12-27T20:44:02.889Z,75.20
2018-12-27T20:46:32.213Z,74.60
2018-12-27T20:49:02.818Z,74.80
2018-12-27T20:51:32.125Z,75.50
2018-12-27T20:54:03.680Z,75.90
2018-12-27T20:56:33.010Z,75.90
2018-12-27T20:59:02.273Z,75.20
2018-12-27T21:01:31.602Z,75.00
2018-12-27T21:04:00.865Z,75.10
2018-12-27T21:06:30.216Z,74.80
2018-12-27T21:08:59.482Z,74.90
2018-12-27T21:11:28.810Z,74.70
2018-12-27T21:13:58.072Z,74.60
2018-12-27T21:16:27.345Z,74.10
2018-12-27T21:18:56.675Z,74.00
2018-12-27T21:21:26.002Z,74.20
2018-12-27T21:23:55.329Z,74.10
2018-12-27T21:26:24.594Z,74.00
2018-12-27T21:28:53.863Z,74.20
2018-12-27T21:31:23.175Z,74.80
2018-12-27T21:33:52.513Z,75.10
2018-12-27T21:36:21.792Z,75.30
2018-12-27T21:38:51.406Z,75.10
2018-12-27T21:41:22.012Z,76.00
2018-12-27T21:43:51.333Z,75.10
2018-12-27T21:46:20.613Z,74.60
2018-12-27T21:48:49.885Z,74.30
2018-12-27T21:53:54.053Z,74.00
2018-12-27T21:56:23.388Z,73.90
2018-12-27T21:58:52.662Z,75.80
2018-12-27T22:01:21.934Z,76.60
2018-12-27T22:03:51.252Z,76.00
2018-12-27T22:06:20.521Z,75.60
2018-12-27T22:08:49.801Z,75.40
2018-12-27T22:11:19.120Z,75.50
2018-12-27T22:13:48.461Z,75.70
2018-12-27T22:16:17.784Z,75.80
2018-12-27T22:18:47.052Z,75.40
2018-12-27T22:21:16.329Z,75.20
2018-12-27T22:23:45.663Z,75.10
2018-12-27T22:26:15.299Z,74.90
2018-12-27T22:28:44.601Z,74.60
2018-12-27T22:31:13.871Z,74.60
2018-12-27T22:33:43.144Z,74.20
2018-12-27T22:36:12.473Z,74.30
2018-12-27T22:38:41.777Z,74.20
2018-12-27T22:41:11.038Z,74.40
2018-12-27T22:43:40.337Z,74.50
2018-12-27T22:46:09.641Z,74.50
2018-12-27T22:48:38.909Z,76.00
2018-12-27T22:51:09.129Z,77.30
2018-12-27T22:53:38.400Z,77.70
2018-12-27T22:56:07.657Z,76.80
2018-12-27T22:58:36.951Z,76.30
2018-12-27T23:01:06.245Z,76.10
2018-12-27T23:03:35.500Z,75.60
2018-12-27T23:06:04.794Z,75.30
2018-12-27T23:08:34.061Z,75.30
2018-12-27T23:11:03.694Z,74.70
2018-12-27T23:13:33.475Z,74.20
